This is the latest recevied weather packets stored in our database for station/object KE2LU. If no packets are shown the sender has not sent any weather packets the latest 10 day(s).
| Time | Temp. | Humidity | Pressure | Rain* | Wind** | Luminosity | Snow |
|---|---|---|---|---|---|---|---|
| 1777256403 | 5° C | 91% | 1023.3 hPa | 0 mm | - | - | - |
| 1777254003 | 5.56° C | 87% | 1023.3 hPa | 0 mm | - | - | - |
| 1777249802 | 8.33° C | 73% | 1022.5 hPa | 0 mm | - | - | - |
| 1777248003 | 10° C | 68% | 1022.2 hPa | 0 mm | - | - | - |
| 1777246503 | 11.11° C | 65% | 1022.2 hPa | 0 mm | - | - | - |
| 1777246203 | 11.67° C | 64% | 1022 hPa | 0 mm | - | - | - |
| 1777240203 | 14.44° C | 56% | 1021.8 hPa | 0 mm | - | - | - |
| 1777239903 | 15° C | 54% | 1021.7 hPa | 0 mm | - | - | - |
| 1777239003 | 15.56° C | 49% | 1021.6 hPa | 0 mm | - | - | - |
| 1777238103 | 15.56° C | 47% | 1021.7 hPa | 0 mm | - | - | - |
| 1777237803 | 15.56° C | 47% | 1021.6 hPa | 0 mm | - | - | - |
| 1777237503 | 15.56° C | 45% | 1021.6 hPa | 0 mm | - | - | - |
| 1777236303 | 15° C | 49% | 1021.6 hPa | 0 mm | - | - | - |
| 1777235103 | 15° C | 51% | 1021.7 hPa | 0 mm | - | - | - |
| 1777230903 | 13.33° C | 57% | 1022.2 hPa | 0 mm | - | - | - |
| 1777229403 | 13.33° C | 62% | 1022.4 hPa | 0 mm | - | - | - |
| 1777229103 | 12.78° C | 62% | 1022.4 hPa | 0 mm | - | - | - |
| 1777228804 | 12.78° C | 65% | 1022.5 hPa | 0 mm | - | - | - |
| 1777227304 | 12.78° C | 67% | 1022.5 hPa | 0 mm | - | - | - |
| 1777222504 | 11.67° C | 78% | 1023.1 hPa | 0 mm | - | - | - |
| 1777222203 | 11.67° C | 78% | 1023.1 hPa | 0 mm | - | - | - |
| 1777221603 | 11.67° C | 77% | 1023.3 hPa | 0 mm | - | - | - |
| 1777221304 | 12.22° C | 77% | 1023.4 hPa | 0 mm | - | - | - |
| 1777218604 | 11.67° C | 81% | 1023.3 hPa | 0 mm | - | - | - |
| 1777216803 | 11.11° C | 79% | 1023.3 hPa | 0 mm | - | - | - |
* Rain latest hour (hover to see other rain measurements)
** Current wind speed in m/s (hover to see current wind gust speed)